KBDG

Details ICAO KBDG
Name BLANDING MUNI
Region United States
Timezone America/Denver (UTC-6.0)
Plans Departing 3
Arriving 4
Stats Elevation 5,865 ft / 1,788 m (AMSL)
Location 37.583337° -109.483289°
Runways 1
Magnetic Variation 9.982° E
Sunrise 2018-05-26 12:02:22 UTC / 2018-05-26 06:02:22 Local
Sunset 2018-05-27 02:30:32 UTC / 2018-05-26 20:30:32 Local
Advertisement - Login to hide

Runways

ID Width Length Bearing (true) Bearing (mag) Surface Threshold Offset Overrun Length
17 75 ft / 23 m 5,793 ft / 1,766 m 180.03° 170.05° Asphalt 0 ft / 0 m 0 ft / 0 m
35 75 ft / 23 m 5,793 ft / 1,766 m 0.03° 350.05° Asphalt 0 ft / 0 m 0 ft / 0 m

Map

Weather


0- 5 10 15 20 25 30 35+ Temperature / ° C

Clouds and Precipitation
Forecast for 2018-05-26 18:00 UTC. Updated 5 hours ago

Ground ~20,000 ft ~40,000 ft Winds

METAR

KBDG 262155Z AUTO 18020G35KT 5SM 28/M09 A2992 RMK AO1 T02821094

TAF

Not found

Frequencies

Recorded 127.75 MHz AWOS 3
Unicom 122.80 MHz CTAF/UNICOM
Warning: Do not use this data for real-world aviation or navigation. No guarantee of current accuracy is given.